sensor_id;sensor_type;location;lat;lon;timestamp;temperature;humidity
44069;DHT22;29738;51.234;5.484;2022-08-19T00:01:54;19.90;99.90
44069;DHT22;29738;51.234;5.484;2022-08-19T00:04:30;19.70;99.90
44069;DHT22;29738;51.234;5.484;2022-08-19T00:06:56;19.60;99.90
44069;DHT22;29738;51.234;5.484;2022-08-19T00:09:23;19.60;99.90
44069;DHT22;29738;51.234;5.484;2022-08-19T00:11:50;19.50;99.90
44069;DHT22;29738;51.234;5.484;2022-08-19T00:14:16;19.40;99.90
44069;DHT22;29738;51.234;5.484;2022-08-19T00:16:44;19.40;99.90
44069;DHT22;29738;51.234;5.484;2022-08-19T00:19:11;19.70;99.90
44069;DHT22;29738;51.234;5.484;2022-08-19T00:21:36;19.70;99.90
44069;DHT22;29738;51.234;5.484;2022-08-19T00:24:09;19.50;99.90
44069;DHT22;29738;51.234;5.484;2022-08-19T00:26:36;19.70;99.90
44069;DHT22;29738;51.234;5.484;2022-08-19T00:29:04;19.60;99.90
44069;DHT22;29738;51.234;5.484;2022-08-19T00:31:30;19.40;99.90
44069;DHT22;29738;51.234;5.484;2022-08-19T00:33:56;19.20;99.90
44069;DHT22;29738;51.234;5.484;2022-08-19T00:36:22;19.10;99.90
44069;DHT22;29738;51.234;5.484;2022-08-19T00:38:48;19.10;99.90
44069;DHT22;29738;51.234;5.484;2022-08-19T00:41:16;18.90;99.90
44069;DHT22;29738;51.234;5.484;2022-08-19T00:44:00;18.90;99.90
44069;DHT22;29738;51.234;5.484;2022-08-19T00:46:27;18.80;99.90
44069;DHT22;29738;51.234;5.484;2022-08-19T00:48:54;18.90;99.90
44069;DHT22;29738;51.234;5.484;2022-08-19T00:51:20;19.10;99.90
44069;DHT22;29738;51.234;5.484;2022-08-19T00:53:46;19.40;99.90
44069;DHT22;29738;51.234;5.484;2022-08-19T00:56:11;19.80;99.90
44069;DHT22;29738;51.234;5.484;2022-08-19T00:58:37;19.60;99.90
44069;DHT22;29738;51.234;5.484;2022-08-19T01:01:04;19.20;99.90
44069;DHT22;29738;51.234;5.484;2022-08-19T01:03:29;19.30;99.90
44069;DHT22;29738;51.234;5.484;2022-08-19T01:05:55;19.20;99.90
44069;DHT22;29738;51.234;5.484;2022-08-19T01:08:22;19.20;99.90
44069;DHT22;29738;51.234;5.484;2022-08-19T01:10:52;19.00;99.90
44069;DHT22;29738;51.234;5.484;2022-08-19T01:13:26;19.00;99.90
44069;DHT22;29738;51.234;5.484;2022-08-19T01:16:02;18.80;99.90
44069;DHT22;29738;51.234;5.484;2022-08-19T01:18:29;18.80;99.90
44069;DHT22;29738;51.234;5.484;2022-08-19T01:20:58;18.90;99.90
44069;DHT22;29738;51.234;5.484;2022-08-19T01:23:26;18.80;99.90
44069;DHT22;29738;51.234;5.484;2022-08-19T01:26:11;18.70;99.90
44069;DHT22;29738;51.234;5.484;2022-08-19T01:28:38;18.60;99.90
44069;DHT22;29738;51.234;5.484;2022-08-19T01:31:04;18.70;99.90
44069;DHT22;29738;51.234;5.484;2022-08-19T01:33:30;18.90;99.90
44069;DHT22;29738;51.234;5.484;2022-08-19T01:36:40;19.00;99.90
44069;DHT22;29738;51.234;5.484;2022-08-19T01:39:07;18.90;99.90
44069;DHT22;29738;51.234;5.484;2022-08-19T01:41:34;18.50;99.90
44069;DHT22;29738;51.234;5.484;2022-08-19T01:44:00;18.30;99.90
44069;DHT22;29738;51.234;5.484;2022-08-19T01:46:29;18.10;99.90
44069;DHT22;29738;51.234;5.484;2022-08-19T01:48:55;17.90;99.90
44069;DHT22;29738;51.234;5.484;2022-08-19T01:51:22;17.80;99.90
44069;DHT22;29738;51.234;5.484;2022-08-19T01:53:49;17.90;99.90
44069;DHT22;29738;51.234;5.484;2022-08-19T01:56:15;17.90;99.90
44069;DHT22;29738;51.234;5.484;2022-08-19T01:59:03;17.90;99.90
44069;DHT22;29738;51.234;5.484;2022-08-19T02:01:29;17.90;99.90
44069;DHT22;29738;51.234;5.484;2022-08-19T02:03:58;17.80;99.90
44069;DHT22;29738;51.234;5.484;2022-08-19T02:06:24;17.60;99.90
44069;DHT22;29738;51.234;5.484;2022-08-19T02:08:50;17.60;99.90
44069;DHT22;29738;51.234;5.484;2022-08-19T02:11:22;17.60;99.90
44069;DHT22;29738;51.234;5.484;2022-08-19T02:13:49;17.80;99.90
44069;DHT22;29738;51.234;5.484;2022-08-19T02:16:17;17.60;99.90
44069;DHT22;29738;51.234;5.484;2022-08-19T02:18:43;17.70;99.90
44069;DHT22;29738;51.234;5.484;2022-08-19T02:21:09;17.80;99.90
44069;DHT22;29738;51.234;5.484;2022-08-19T02:23:36;17.80;99.90
44069;DHT22;29738;51.234;5.484;2022-08-19T02:26:02;17.80;99.90
44069;DHT22;29738;51.234;5.484;2022-08-19T02:28:27;17.90;99.90
44069;DHT22;29738;51.234;5.484;2022-08-19T02:30:53;17.80;99.90
44069;DHT22;29738;51.234;5.484;2022-08-19T02:33:19;17.80;99.90
44069;DHT22;29738;51.234;5.484;2022-08-19T02:35:45;17.80;99.90
44069;DHT22;29738;51.234;5.484;2022-08-19T02:38:12;17.80;99.90
44069;DHT22;29738;51.234;5.484;2022-08-19T02:41:01;17.80;99.90
44069;DHT22;29738;51.234;5.484;2022-08-19T02:43:28;17.90;99.90
44069;DHT22;29738;51.234;5.484;2022-08-19T02:45:55;17.90;99.90
44069;DHT22;29738;51.234;5.484;2022-08-19T02:48:23;18.20;99.90
44069;DHT22;29738;51.234;5.484;2022-08-19T02:50:51;18.20;99.90
44069;DHT22;29738;51.234;5.484;2022-08-19T02:53:24;18.20;99.90
44069;DHT22;29738;51.234;5.484;2022-08-19T02:55:51;18.10;99.90
44069;DHT22;29738;51.234;5.484;2022-08-19T02:58:18;18.30;99.90
44069;DHT22;29738;51.234;5.484;2022-08-19T03:00:46;18.20;99.90
44069;DHT22;29738;51.234;5.484;2022-08-19T03:03:13;18.00;99.90
44069;DHT22;29738;51.234;5.484;2022-08-19T03:05:40;18.10;99.90
44069;DHT22;29738;51.234;5.484;2022-08-19T03:08:06;18.10;99.90
44069;DHT22;29738;51.234;5.484;2022-08-19T03:10:32;18.40;99.90
44069;DHT22;29738;51.234;5.484;2022-08-19T03:12:58;18.70;99.90
44069;DHT22;29738;51.234;5.484;2022-08-19T03:15:24;18.30;99.90
44069;DHT22;29738;51.234;5.484;2022-08-19T03:17:50;18.30;99.90
44069;DHT22;29738;51.234;5.484;2022-08-19T03:20:16;18.70;99.90
44069;DHT22;29738;51.234;5.484;2022-08-19T03:22:41;18.80;99.90
44069;DHT22;29738;51.234;5.484;2022-08-19T03:25:07;18.80;99.90
44069;DHT22;29738;51.234;5.484;2022-08-19T03:27:33;18.50;99.90
44069;DHT22;29738;51.234;5.484;2022-08-19T03:30:00;18.00;99.90
44069;DHT22;29738;51.234;5.484;2022-08-19T03:32:26;18.00;99.90
44069;DHT22;29738;51.234;5.484;2022-08-19T03:34:51;17.80;99.90
44069;DHT22;29738;51.234;5.484;2022-08-19T03:37:18;17.90;99.90
44069;DHT22;29738;51.234;5.484;2022-08-19T03:39:44;17.80;99.90
44069;DHT22;29738;51.234;5.484;2022-08-19T03:42:10;17.80;99.90
44069;DHT22;29738;51.234;5.484;2022-08-19T03:44:36;17.40;99.90
44069;DHT22;29738;51.234;5.484;2022-08-19T03:47:03;17.50;99.90
44069;DHT22;29738;51.234;5.484;2022-08-19T03:49:31;17.50;99.90
44069;DHT22;29738;51.234;5.484;2022-08-19T03:51:58;17.60;99.90
44069;DHT22;29738;51.234;5.484;2022-08-19T03:54:26;17.50;99.90
44069;DHT22;29738;51.234;5.484;2022-08-19T03:56:54;17.50;99.90
44069;DHT22;29738;51.234;5.484;2022-08-19T03:59:28;17.20;99.90
44069;DHT22;29738;51.234;5.484;2022-08-19T04:01:56;17.20;99.90
44069;DHT22;29738;51.234;5.484;2022-08-19T04:04:23;17.10;99.90
44069;DHT22;29738;51.234;5.484;2022-08-19T04:06:49;17.20;99.90
44069;DHT22;29738;51.234;5.484;2022-08-19T04:09:16;17.20;99.90
44069;DHT22;29738;51.234;5.484;2022-08-19T04:11:54;17.30;99.90
44069;DHT22;29738;51.234;5.484;2022-08-19T04:14:23;17.40;99.90
44069;DHT22;29738;51.234;5.484;2022-08-19T04:16:50;17.30;99.90
44069;DHT22;29738;51.234;5.484;2022-08-19T04:19:18;17.30;99.90
44069;DHT22;29738;51.234;5.484;2022-08-19T04:21:47;17.40;99.90
44069;DHT22;29738;51.234;5.484;2022-08-19T04:24:14;17.30;99.90
44069;DHT22;29738;51.234;5.484;2022-08-19T04:26:39;17.40;99.90
44069;DHT22;29738;51.234;5.484;2022-08-19T04:29:09;17.70;99.90
44069;DHT22;29738;51.234;5.484;2022-08-19T04:31:35;18.10;99.90
44069;DHT22;29738;51.234;5.484;2022-08-19T04:34:04;18.30;99.90
44069;DHT22;29738;51.234;5.484;2022-08-19T04:36:33;18.30;99.90
44069;DHT22;29738;51.234;5.484;2022-08-19T04:39:03;17.90;99.90
44069;DHT22;29738;51.234;5.484;2022-08-19T04:41:29;17.50;99.90
44069;DHT22;29738;51.234;5.484;2022-08-19T04:44:13;17.30;99.90
44069;DHT22;29738;51.234;5.484;2022-08-19T04:46:40;17.20;99.90
44069;DHT22;29738;51.234;5.484;2022-08-19T04:49:06;17.20;99.90
44069;DHT22;29738;51.234;5.484;2022-08-19T04:51:34;17.20;99.90
44069;DHT22;29738;51.234;5.484;2022-08-19T04:54:04;17.20;99.90
44069;DHT22;29738;51.234;5.484;2022-08-19T04:56:29;17.20;99.90
44069;DHT22;29738;51.234;5.484;2022-08-19T04:58:56;17.20;99.90
44069;DHT22;29738;51.234;5.484;2022-08-19T05:01:24;17.30;99.90
44069;DHT22;29738;51.234;5.484;2022-08-19T05:03:50;17.10;99.90
44069;DHT22;29738;51.234;5.484;2022-08-19T05:06:19;17.10;99.90
44069;DHT22;29738;51.234;5.484;2022-08-19T05:08:45;17.10;99.90
44069;DHT22;29738;51.234;5.484;2022-08-19T05:11:18;17.20;99.90
44069;DHT22;29738;51.234;5.484;2022-08-19T05:13:46;17.20;99.90
44069;DHT22;29738;51.234;5.484;2022-08-19T05:16:14;17.10;99.90
44069;DHT22;29738;51.234;5.484;2022-08-19T05:18:40;17.30;99.90
44069;DHT22;29738;51.234;5.484;2022-08-19T05:21:25;17.40;99.90
44069;DHT22;29738;51.234;5.484;2022-08-19T05:24:10;17.60;99.90
44069;DHT22;29738;51.234;5.484;2022-08-19T05:26:41;18.00;99.90
44069;DHT22;29738;51.234;5.484;2022-08-19T05:29:08;18.20;99.90
44069;DHT22;29738;51.234;5.484;2022-08-19T05:31:35;18.20;99.90
44069;DHT22;29738;51.234;5.484;2022-08-19T05:34:02;18.30;99.90
44069;DHT22;29738;51.234;5.484;2022-08-19T05:36:36;18.40;99.90
44069;DHT22;29738;51.234;5.484;2022-08-19T05:39:06;18.30;99.90
44069;DHT22;29738;51.234;5.484;2022-08-19T05:41:32;18.20;99.90
44069;DHT22;29738;51.234;5.484;2022-08-19T05:44:01;18.10;99.90
44069;DHT22;29738;51.234;5.484;2022-08-19T05:46:27;18.00;99.90
44069;DHT22;29738;51.234;5.484;2022-08-19T05:48:52;18.00;99.90
44069;DHT22;29738;51.234;5.484;2022-08-19T05:51:22;17.70;99.90
44069;DHT22;29738;51.234;5.484;2022-08-19T05:53:48;17.70;99.90
44069;DHT22;29738;51.234;5.484;2022-08-19T05:56:16;17.70;99.90
44069;DHT22;29738;51.234;5.484;2022-08-19T05:58:43;17.70;99.90
44069;DHT22;29738;51.234;5.484;2022-08-19T06:01:12;17.70;99.90
44069;DHT22;29738;51.234;5.484;2022-08-19T06:03:38;17.80;99.90
44069;DHT22;29738;51.234;5.484;2022-08-19T06:06:05;17.80;99.90
44069;DHT22;29738;51.234;5.484;2022-08-19T06:08:31;17.80;99.90
44069;DHT22;29738;51.234;5.484;2022-08-19T06:11:12;17.90;99.90
44069;DHT22;29738;51.234;5.484;2022-08-19T06:13:38;18.00;99.90
44069;DHT22;29738;51.234;5.484;2022-08-19T06:16:04;18.10;99.90
44069;DHT22;29738;51.234;5.484;2022-08-19T06:18:30;18.30;99.90
44069;DHT22;29738;51.234;5.484;2022-08-19T06:20:56;18.30;99.90
44069;DHT22;29738;51.234;5.484;2022-08-19T06:23:23;18.40;99.90
44069;DHT22;29738;51.234;5.484;2022-08-19T06:25:49;18.40;99.90
44069;DHT22;29738;51.234;5.484;2022-08-19T06:28:15;18.50;99.90
44069;DHT22;29738;51.234;5.484;2022-08-19T06:30:40;18.60;99.90
44069;DHT22;29738;51.234;5.484;2022-08-19T06:33:07;18.60;99.90
44069;DHT22;29738;51.234;5.484;2022-08-19T06:35:32;18.60;99.90
44069;DHT22;29738;51.234;5.484;2022-08-19T06:37:58;18.70;99.90
44069;DHT22;29738;51.234;5.484;2022-08-19T06:40:24;18.80;99.90
44069;DHT22;29738;51.234;5.484;2022-08-19T06:42:52;18.80;99.90
44069;DHT22;29738;51.234;5.484;2022-08-19T06:45:18;19.00;99.90
44069;DHT22;29738;51.234;5.484;2022-08-19T06:47:45;19.00;99.90
44069;DHT22;29738;51.234;5.484;2022-08-19T06:50:13;19.10;99.90
44069;DHT22;29738;51.234;5.484;2022-08-19T06:52:39;19.20;99.90
44069;DHT22;29738;51.234;5.484;2022-08-19T06:55:05;19.20;99.90
44069;DHT22;29738;51.234;5.484;2022-08-19T06:57:31;19.30;99.90
44069;DHT22;29738;51.234;5.484;2022-08-19T06:59:58;19.20;99.90
44069;DHT22;29738;51.234;5.484;2022-08-19T07:02:25;18.90;99.90
44069;DHT22;29738;51.234;5.484;2022-08-19T07:04:52;18.90;99.90
44069;DHT22;29738;51.234;5.484;2022-08-19T07:07:20;19.00;99.90
44069;DHT22;29738;51.234;5.484;2022-08-19T07:09:46;19.00;99.90
44069;DHT22;29738;51.234;5.484;2022-08-19T07:12:14;19.10;99.90
44069;DHT22;29738;51.234;5.484;2022-08-19T07:14:41;18.90;99.90
44069;DHT22;29738;51.234;5.484;2022-08-19T07:17:10;19.00;99.90
44069;DHT22;29738;51.234;5.484;2022-08-19T07:19:37;18.90;99.90
44069;DHT22;29738;51.234;5.484;2022-08-19T07:22:05;18.80;99.90
44069;DHT22;29738;51.234;5.484;2022-08-19T07:24:32;19.10;99.90
44069;DHT22;29738;51.234;5.484;2022-08-19T07:27:01;19.30;99.90
44069;DHT22;29738;51.234;5.484;2022-08-19T07:29:30;19.50;99.90
44069;DHT22;29738;51.234;5.484;2022-08-19T07:31:58;19.60;99.90
44069;DHT22;29738;51.234;5.484;2022-08-19T07:34:25;19.80;99.90
44069;DHT22;29738;51.234;5.484;2022-08-19T07:36:52;20.00;99.90
44069;DHT22;29738;51.234;5.484;2022-08-19T07:39:22;20.00;99.90
44069;DHT22;29738;51.234;5.484;2022-08-19T07:41:48;19.90;99.90
44069;DHT22;29738;51.234;5.484;2022-08-19T07:44:15;20.10;99.90
44069;DHT22;29738;51.234;5.484;2022-08-19T07:46:46;20.20;99.90
44069;DHT22;29738;51.234;5.484;2022-08-19T07:49:13;20.20;99.90
44069;DHT22;29738;51.234;5.484;2022-08-19T07:51:56;20.50;99.90
44069;DHT22;29738;51.234;5.484;2022-08-19T07:54:24;20.70;99.90
44069;DHT22;29738;51.234;5.484;2022-08-19T07:56:50;20.70;99.90
44069;DHT22;29738;51.234;5.484;2022-08-19T07:59:17;20.50;99.90
44069;DHT22;29738;51.234;5.484;2022-08-19T08:01:43;20.40;99.90
44069;DHT22;29738;51.234;5.484;2022-08-19T08:04:10;20.40;99.90
44069;DHT22;29738;51.234;5.484;2022-08-19T08:06:55;20.20;99.90
44069;DHT22;29738;51.234;5.484;2022-08-19T08:09:42;19.90;99.90
44069;DHT22;29738;51.234;5.484;2022-08-19T08:12:17;20.10;99.90
44069;DHT22;29738;51.234;5.484;2022-08-19T08:14:50;20.20;99.90
44069;DHT22;29738;51.234;5.484;2022-08-19T08:17:19;20.30;99.90
44069;DHT22;29738;51.234;5.484;2022-08-19T08:19:45;20.50;99.90
44069;DHT22;29738;51.234;5.484;2022-08-19T08:22:14;20.50;99.90
44069;DHT22;29738;51.234;5.484;2022-08-19T08:25:12;20.80;99.90
44069;DHT22;29738;51.234;5.484;2022-08-19T08:27:40;21.00;99.90
44069;DHT22;29738;51.234;5.484;2022-08-19T08:30:11;21.00;99.90
44069;DHT22;29738;51.234;5.484;2022-08-19T08:32:38;20.60;99.90
44069;DHT22;29738;51.234;5.484;2022-08-19T08:35:11;20.60;99.90
44069;DHT22;29738;51.234;5.484;2022-08-19T08:37:37;20.70;99.90
44069;DHT22;29738;51.234;5.484;2022-08-19T08:40:19;20.70;99.90
44069;DHT22;29738;51.234;5.484;2022-08-19T08:45:28;20.50;99.90
44069;DHT22;29738;51.234;5.484;2022-08-19T08:47:57;20.70;99.90
44069;DHT22;29738;51.234;5.484;2022-08-19T08:50:31;20.90;99.90
44069;DHT22;29738;51.234;5.484;2022-08-19T08:53:01;20.80;99.90
44069;DHT22;29738;51.234;5.484;2022-08-19T08:55:29;21.10;99.90
44069;DHT22;29738;51.234;5.484;2022-08-19T08:58:16;21.30;99.90
44069;DHT22;29738;51.234;5.484;2022-08-19T09:00:46;21.40;99.90
44069;DHT22;29738;51.234;5.484;2022-08-19T09:03:24;21.70;99.90
44069;DHT22;29738;51.234;5.484;2022-08-19T09:06:00;21.50;99.90
44069;DHT22;29738;51.234;5.484;2022-08-19T09:08:40;21.50;99.90
44069;DHT22;29738;51.234;5.484;2022-08-19T09:11:09;21.60;99.90
44069;DHT22;29738;51.234;5.484;2022-08-19T09:13:49;21.90;99.90
44069;DHT22;29738;51.234;5.484;2022-08-19T09:16:20;22.20;99.90
44069;DHT22;29738;51.234;5.484;2022-08-19T09:18:49;22.20;99.90
44069;DHT22;29738;51.234;5.484;2022-08-19T09:21:18;22.40;99.90
44069;DHT22;29738;51.234;5.484;2022-08-19T09:23:44;22.70;99.90
44069;DHT22;29738;51.234;5.484;2022-08-19T09:26:13;22.40;99.90
44069;DHT22;29738;51.234;5.484;2022-08-19T09:28:41;22.00;99.90
44069;DHT22;29738;51.234;5.484;2022-08-19T09:31:29;21.90;99.90
44069;DHT22;29738;51.234;5.484;2022-08-19T09:33:55;21.80;99.90
44069;DHT22;29738;51.234;5.484;2022-08-19T09:36:26;21.90;99.90
44069;DHT22;29738;51.234;5.484;2022-08-19T09:38:55;22.10;99.90
44069;DHT22;29738;51.234;5.484;2022-08-19T09:41:23;22.20;99.90
44069;DHT22;29738;51.234;5.484;2022-08-19T09:43:51;22.10;99.90
44069;DHT22;29738;51.234;5.484;2022-08-19T09:46:21;22.30;99.90
44069;DHT22;29738;51.234;5.484;2022-08-19T09:48:48;22.30;99.90
44069;DHT22;29738;51.234;5.484;2022-08-19T09:51:18;22.40;99.90
44069;DHT22;29738;51.234;5.484;2022-08-19T09:53:46;22.00;99.90
44069;DHT22;29738;51.234;5.484;2022-08-19T09:56:13;21.90;99.90
44069;DHT22;29738;51.234;5.484;2022-08-19T09:58:39;21.70;99.90
44069;DHT22;29738;51.234;5.484;2022-08-19T10:01:08;21.70;99.90
44069;DHT22;29738;51.234;5.484;2022-08-19T10:03:35;21.90;99.90
44069;DHT22;29738;51.234;5.484;2022-08-19T10:06:04;22.00;99.90
44069;DHT22;29738;51.234;5.484;2022-08-19T10:08:34;22.30;99.90
44069;DHT22;29738;51.234;5.484;2022-08-19T10:11:01;22.30;99.90
44069;DHT22;29738;51.234;5.484;2022-08-19T10:13:29;22.00;99.90
44069;DHT22;29738;51.234;5.484;2022-08-19T10:16:02;22.20;99.90
44069;DHT22;29738;51.234;5.484;2022-08-19T10:18:28;22.80;99.90
44069;DHT22;29738;51.234;5.484;2022-08-19T10:23:35;23.40;99.90
44069;DHT22;29738;51.234;5.484;2022-08-19T10:26:03;23.60;99.90
44069;DHT22;29738;51.234;5.484;2022-08-19T10:28:31;23.70;99.90
44069;DHT22;29738;51.234;5.484;2022-08-19T10:30:57;23.70;99.90
44069;DHT22;29738;51.234;5.484;2022-08-19T10:33:22;23.80;99.90
44069;DHT22;29738;51.234;5.484;2022-08-19T10:35:59;24.00;99.90
44069;DHT22;29738;51.234;5.484;2022-08-19T10:38:25;24.00;99.90
44069;DHT22;29738;51.234;5.484;2022-08-19T10:40:50;24.20;99.90
44069;DHT22;29738;51.234;5.484;2022-08-19T10:43:17;23.90;99.90
44069;DHT22;29738;51.234;5.484;2022-08-19T10:45:43;23.90;99.90
44069;DHT22;29738;51.234;5.484;2022-08-19T10:48:14;23.70;99.90
44069;DHT22;29738;51.234;5.484;2022-08-19T10:50:39;23.70;99.90
44069;DHT22;29738;51.234;5.484;2022-08-19T10:53:24;24.10;99.90
44069;DHT22;29738;51.234;5.484;2022-08-19T10:55:50;24.40;99.90
44069;DHT22;29738;51.234;5.484;2022-08-19T10:58:35;24.50;99.90
44069;DHT22;29738;51.234;5.484;2022-08-19T11:01:00;24.60;99.90
44069;DHT22;29738;51.234;5.484;2022-08-19T11:03:26;24.70;99.90
44069;DHT22;29738;51.234;5.484;2022-08-19T11:06:04;24.60;99.90
44069;DHT22;29738;51.234;5.484;2022-08-19T11:08:30;24.40;99.90
44069;DHT22;29738;51.234;5.484;2022-08-19T11:10:59;24.60;99.90
44069;DHT22;29738;51.234;5.484;2022-08-19T11:13:30;24.60;99.90
44069;DHT22;29738;51.234;5.484;2022-08-19T11:16:00;24.20;99.90
44069;DHT22;29738;51.234;5.484;2022-08-19T11:18:27;24.30;99.90
44069;DHT22;29738;51.234;5.484;2022-08-19T11:20:53;24.40;99.90
44069;DHT22;29738;51.234;5.484;2022-08-19T11:23:19;24.40;99.90
44069;DHT22;29738;51.234;5.484;2022-08-19T11:25:46;24.50;99.90
44069;DHT22;29738;51.234;5.484;2022-08-19T11:28:12;24.70;99.90
44069;DHT22;29738;51.234;5.484;2022-08-19T11:30:39;24.50;99.90
44069;DHT22;29738;51.234;5.484;2022-08-19T11:33:05;24.50;99.90
44069;DHT22;29738;51.234;5.484;2022-08-19T11:35:31;24.50;99.90
44069;DHT22;29738;51.234;5.484;2022-08-19T11:37:58;24.40;99.90
44069;DHT22;29738;51.234;5.484;2022-08-19T11:40:25;24.10;99.90
44069;DHT22;29738;51.234;5.484;2022-08-19T11:42:51;24.00;99.90
44069;DHT22;29738;51.234;5.484;2022-08-19T11:45:23;24.20;99.90
44069;DHT22;29738;51.234;5.484;2022-08-19T11:47:49;24.30;99.90
44069;DHT22;29738;51.234;5.484;2022-08-19T11:50:16;24.40;99.90
44069;DHT22;29738;51.234;5.484;2022-08-19T11:52:42;24.40;99.90
44069;DHT22;29738;51.234;5.484;2022-08-19T11:55:09;24.40;99.90
44069;DHT22;29738;51.234;5.484;2022-08-19T11:57:35;24.40;99.90
44069;DHT22;29738;51.234;5.484;2022-08-19T12:00:01;24.50;99.90
44069;DHT22;29738;51.234;5.484;2022-08-19T12:02:28;24.70;99.90
44069;DHT22;29738;51.234;5.484;2022-08-19T12:04:53;24.60;99.90
44069;DHT22;29738;51.234;5.484;2022-08-19T12:07:19;24.60;99.90
44069;DHT22;29738;51.234;5.484;2022-08-19T12:09:45;24.50;99.90
44069;DHT22;29738;51.234;5.484;2022-08-19T12:12:11;24.50;99.90
44069;DHT22;29738;51.234;5.484;2022-08-19T12:14:37;24.70;99.90
44069;DHT22;29738;51.234;5.484;2022-08-19T12:17:03;24.90;99.90
44069;DHT22;29738;51.234;5.484;2022-08-19T12:19:31;25.00;99.90
44069;DHT22;29738;51.234;5.484;2022-08-19T12:22:01;25.10;99.90
44069;DHT22;29738;51.234;5.484;2022-08-19T12:24:31;25.50;99.90
44069;DHT22;29738;51.234;5.484;2022-08-19T12:26:57;25.40;99.90
44069;DHT22;29738;51.234;5.484;2022-08-19T12:29:24;25.10;99.90
44069;DHT22;29738;51.234;5.484;2022-08-19T12:31:54;25.10;99.90
44069;DHT22;29738;51.234;5.484;2022-08-19T12:34:26;25.00;99.90
44069;DHT22;29738;51.234;5.484;2022-08-19T12:36:56;24.70;99.90
44069;DHT22;29738;51.234;5.484;2022-08-19T12:39:21;24.90;99.90
44069;DHT22;29738;51.234;5.484;2022-08-19T12:41:47;25.00;99.90
44069;DHT22;29738;51.234;5.484;2022-08-19T12:44:14;25.20;99.90
44069;DHT22;29738;51.234;5.484;2022-08-19T12:46:40;25.40;99.90
44069;DHT22;29738;51.234;5.484;2022-08-19T12:49:06;25.40;99.90
44069;DHT22;29738;51.234;5.484;2022-08-19T12:51:32;25.40;99.90
44069;DHT22;29738;51.234;5.484;2022-08-19T12:53:57;25.40;99.90
44069;DHT22;29738;51.234;5.484;2022-08-19T12:56:23;25.50;99.90
44069;DHT22;29738;51.234;5.484;2022-08-19T12:58:50;25.70;99.90
44069;DHT22;29738;51.234;5.484;2022-08-19T13:01:16;25.70;99.90
44069;DHT22;29738;51.234;5.484;2022-08-19T13:03:44;25.80;99.90
44069;DHT22;29738;51.234;5.484;2022-08-19T13:06:11;25.80;99.90
44069;DHT22;29738;51.234;5.484;2022-08-19T13:08:37;25.80;99.90
44069;DHT22;29738;51.234;5.484;2022-08-19T13:11:22;25.70;99.90
44069;DHT22;29738;51.234;5.484;2022-08-19T13:13:51;25.40;99.90
44069;DHT22;29738;51.234;5.484;2022-08-19T13:16:18;25.30;99.90
44069;DHT22;29738;51.234;5.484;2022-08-19T13:18:46;25.20;99.90
44069;DHT22;29738;51.234;5.484;2022-08-19T13:21:18;25.30;99.90
44069;DHT22;29738;51.234;5.484;2022-08-19T13:23:46;25.30;99.90
44069;DHT22;29738;51.234;5.484;2022-08-19T13:26:13;25.50;99.90
44069;DHT22;29738;51.234;5.484;2022-08-19T13:28:40;25.50;99.90
44069;DHT22;29738;51.234;5.484;2022-08-19T13:31:27;25.60;99.90
44069;DHT22;29738;51.234;5.484;2022-08-19T13:34:11;25.90;99.90
44069;DHT22;29738;51.234;5.484;2022-08-19T13:36:38;26.00;99.90
44069;DHT22;29738;51.234;5.484;2022-08-19T13:39:05;25.70;99.90
44069;DHT22;29738;51.234;5.484;2022-08-19T13:41:31;25.50;99.90
44069;DHT22;29738;51.234;5.484;2022-08-19T13:43:57;25.60;99.90
44069;DHT22;29738;51.234;5.484;2022-08-19T13:46:23;25.80;99.90
44069;DHT22;29738;51.234;5.484;2022-08-19T13:48:49;25.40;99.90
44069;DHT22;29738;51.234;5.484;2022-08-19T13:51:16;25.40;99.90
44069;DHT22;29738;51.234;5.484;2022-08-19T13:53:43;25.30;99.90
44069;DHT22;29738;51.234;5.484;2022-08-19T13:56:12;25.40;99.90
44069;DHT22;29738;51.234;5.484;2022-08-19T13:58:39;25.60;99.90
44069;DHT22;29738;51.234;5.484;2022-08-19T14:01:05;26.00;99.90
44069;DHT22;29738;51.234;5.484;2022-08-19T14:03:33;25.80;99.90
44069;DHT22;29738;51.234;5.484;2022-08-19T14:05:59;25.90;99.90
44069;DHT22;29738;51.234;5.484;2022-08-19T14:08:25;26.30;99.90
44069;DHT22;29738;51.234;5.484;2022-08-19T14:10:54;26.00;99.90
44069;DHT22;29738;51.234;5.484;2022-08-19T14:13:21;26.20;99.90
44069;DHT22;29738;51.234;5.484;2022-08-19T14:15:47;26.10;99.90
44069;DHT22;29738;51.234;5.484;2022-08-19T14:18:14;26.20;99.90
44069;DHT22;29738;51.234;5.484;2022-08-19T14:20:41;26.40;99.90
44069;DHT22;29738;51.234;5.484;2022-08-19T14:23:07;26.80;99.90
44069;DHT22;29738;51.234;5.484;2022-08-19T14:25:33;26.70;99.90
44069;DHT22;29738;51.234;5.484;2022-08-19T14:27:59;26.60;99.90
44069;DHT22;29738;51.234;5.484;2022-08-19T14:30:29;26.50;99.90
44069;DHT22;29738;51.234;5.484;2022-08-19T14:32:59;26.70;99.90
44069;DHT22;29738;51.234;5.484;2022-08-19T14:35:27;26.80;99.90
44069;DHT22;29738;51.234;5.484;2022-08-19T14:37:53;26.60;99.90
44069;DHT22;29738;51.234;5.484;2022-08-19T14:40:22;26.60;99.90
44069;DHT22;29738;51.234;5.484;2022-08-19T14:42:56;26.30;99.90
44069;DHT22;29738;51.234;5.484;2022-08-19T14:45:27;26.00;99.90
44069;DHT22;29738;51.234;5.484;2022-08-19T14:47:53;26.20;99.90
44069;DHT22;29738;51.234;5.484;2022-08-19T14:50:19;26.10;99.90
44069;DHT22;29738;51.234;5.484;2022-08-19T14:52:48;25.80;99.90
44069;DHT22;29738;51.234;5.484;2022-08-19T14:55:16;26.00;99.90
44069;DHT22;29738;51.234;5.484;2022-08-19T14:57:42;25.70;99.90
44069;DHT22;29738;51.234;5.484;2022-08-19T15:00:09;25.40;99.90
44069;DHT22;29738;51.234;5.484;2022-08-19T15:02:39;25.30;99.90
44069;DHT22;29738;51.234;5.484;2022-08-19T15:05:05;25.30;99.90
44069;DHT22;29738;51.234;5.484;2022-08-19T15:07:31;25.30;99.90
44069;DHT22;29738;51.234;5.484;2022-08-19T15:09:57;25.60;99.90
44069;DHT22;29738;51.234;5.484;2022-08-19T15:12:24;25.60;99.90
44069;DHT22;29738;51.234;5.484;2022-08-19T15:14:50;25.90;99.90
44069;DHT22;29738;51.234;5.484;2022-08-19T15:17:17;26.20;99.90
44069;DHT22;29738;51.234;5.484;2022-08-19T15:19:43;26.30;99.90
44069;DHT22;29738;51.234;5.484;2022-08-19T15:22:09;26.60;99.90
44069;DHT22;29738;51.234;5.484;2022-08-19T15:24:35;26.60;99.90
44069;DHT22;29738;51.234;5.484;2022-08-19T15:27:01;26.60;99.90
44069;DHT22;29738;51.234;5.484;2022-08-19T15:29:27;26.90;99.90
44069;DHT22;29738;51.234;5.484;2022-08-19T15:31:54;27.20;99.90
44069;DHT22;29738;51.234;5.484;2022-08-19T15:34:23;27.00;99.90
44069;DHT22;29738;51.234;5.484;2022-08-19T15:36:50;27.00;99.90
44069;DHT22;29738;51.234;5.484;2022-08-19T15:39:16;26.90;99.90
44069;DHT22;29738;51.234;5.484;2022-08-19T15:41:44;26.70;99.90
44069;DHT22;29738;51.234;5.484;2022-08-19T15:44:13;26.70;99.90